ADDS METAR Data INFO
IDs: Format: Raw Decoded Include TAF

Data at: 0312 UTC 20 Jul 2018

KSGS 200255Z AUTO 05003KT 10SM OVC018 19/17 A2969 RMK AO2 T01850165
KSGS 200235Z AUTO 00000KT 10SM OVC018 18/17 A2969 RMK AO2 T01830167
KSGS 200215Z AUTO 07004KT 10SM OVC018 19/17 A2968 RMK AO2 T01850169
KSGS 200155Z AUTO 06004KT 10SM OVC018 18/17 A2968 RMK AO2 T01840170
KSGS 200135Z AUTO 08005KT 7SM OVC020 19/17 A2969 RMK AO2 T01850172
KSGS 200115Z AUTO 10005KT 3SM BR OVC022 19/17 A2969 RMK AO2 T01870165
KSGS 200055Z AUTO 11003KT 7SM OVC022 20/16 A2969 RMK AO2 T01950164
KSGS 200035Z AUTO 10003KT 7SM OVC022 20/17 A2970 RMK AO2 T01950165
KSGS 200015Z AUTO 11005KT 7SM OVC024 19/17 A2970 RMK AO2 T01920166
KSGS 192355Z AUTO 10005KT 10SM OVC024 19/16 A2970 RMK AO2 60001 T01940161 10211 20194
KSGS 192335Z AUTO 08006KT 10SM OVC026 20/16 A2970 RMK AO2 T01980162
KSGS 192315Z AUTO 11005KT 10SM OVC026 20/17 A2971 RMK AO2 T01960165
KSGS 192255Z AUTO 10004KT 10SM OVC028 20/16 A2972 RMK AO2 T02000163
KSGS 192235Z AUTO 12005KT 10SM SCT024 OVC030 20/16 A2972 RMK AO2 T02020158
KSGS 192215Z AUTO 12006KT 10SM OVC030 21/15 A2972 RMK AO2 T02050153
KSGS 192155Z AUTO 13008KT 100V160 10SM OVC034 21/15 A2973 RMK AO2 T02060151
KSGS 192135Z AUTO 13008G14KT 090V180 10SM OVC034 21/15 A2973 RMK AO2 T02080148
KSGS 192115Z AUTO 13006KT 10SM OVC032 21/15 A2974 RMK AO2 T02070153
KSGS 192055Z AUTO 14007G16KT 10SM OVC032 21/15 A2974 RMK AO2 60001 T02070152
KSGS 192035Z AUTO 14009G15KT 10SM SCT025 OVC030 21/15 A2974 RMK AO2 T02060150
KSGS 192015Z AUTO 14007G14KT 110V170 10SM SCT025 OVC030 21/16 A2975 RMK AO2 T02050155
KSGS 191955Z AUTO 15012G20KT 10SM BKN021 OVC029 20/16 A2976 RMK AO2 T02040157 P0001
KSGS 191935Z AUTO 14008G17KT 10SM BKN019 OVC026 21/17 A2976 RMK AO2 T02060167 P0001
KSGS 191915Z AUTO 13010G16KT 10SM BKN019 OVC024 21/18 A2976 RMK AO2 T02110181 P0001
KSGS 191855Z AUTO 14010G17KT 10SM OVC019 21/18 A2976 RMK AO2 LTG DSNT SW T02070182 P0001
KSGS 191835Z AUTO 15005G14KT 7SM BKN017 OVC022 21/19 A2977 RMK AO2 T02080186 P0001
KSGS 191815Z AUTO 13008KT 110V170 10SM SCT015 BKN022 21/20 A2977 RMK AO2 T02080195 P0001
KSGS 191755Z AUTO 13009G18KT 7SM BKN013 BKN026 20/19 A2978 RMK AO2 60001 T02040192 10225 20202 P0001
KSGS 191736Z AUTO 14010G14KT 7SM -DZ OVC015 20/18 A2980 RMK AO2 T02020184 P0001
KSGS 191715Z AUTO 15007KT 10SM -RA BKN017 BKN022 OVC050 21/18 A2981 RMK AO2 T02060178
KSGS 191655Z AUTO 16008G15KT 10SM SCT020 SCT025 BKN050 21/19 A2982 RMK AO2 T02070185
KSGS 191635Z AUTO 17010G18KT 7SM -RA SCT019 BKN026 BKN060 21/18 A2983 RMK AO2 T02060182
KSGS 191615Z AUTO 17011G18KT 10SM SCT023 SCT028 SCT060 21/17 A2982 RMK AO2 T02070174
KSGS 191555Z AUTO 16012G20KT 130V190 10SM SCT023 SCT080 22/17 A2981 RMK AO2 T02150172
KSGS 191535Z AUTO 15009G18KT 10SM SCT022 SCT070 SCT085 22/17 A2981 RMK AO2 T02170169
KSGS 191516Z AUTO 16012G18KT 10SM SCT022 BKN080 BKN100 22/17 A2983 RMK AO2 T02220171
KSGS 191455Z AUTO 16011G15KT 10SM SCT022 BKN090 22/18 A2983 RMK AO2 T02210175
KSGS 191435Z AUTO 16009G15KT 10SM SCT090 22/18 A2984 RMK AO2 T02220176
KSGS 191415Z AUTO 16009KT 10SM SCT070 SCT090 22/18 A2984 RMK AO2 T02240180
KSGS 191355Z AUTO 17010KT 10SM SCT070 SCT090 SCT120 23/18 A2985 RMK AO2 T02250180
KSGS 191335Z AUTO 16008G14KT 10SM SCT070 SCT120 22/18 A2985 RMK AO2 T02200179
KSGS 191315Z AUTO 15007KT 10SM SCT070 22/18 A2985 RMK AO2 LTG DSNT S THRU W T02150180
KSGS 191255Z AUTO 14010G15KT 10SM CLR 21/18 A2984 RMK AO2 T02120178
KSGS 191235Z AUTO 15005KT 10SM CLR 21/18 A2985 RMK AO2 T02120181
KSGS 191215Z AUTO 15005KT 10SM CLR 21/18 A2985 RMK AO2 T02070180
KSGS 191155Z AUTO 14005KT 10SM CLR 21/18 A2986 RMK AO2 LTG DSNT S T02050180 10210 20196
KSGS 191135Z AUTO 14004KT 10SM CLR 20/18 A2986 RMK AO2 T02000179
KSGS 191115Z AUTO 15003KT 10SM CLR 20/18 A2987 RMK AO2 LTG DSNT SW T02000177
KSGS 191055Z AUTO 14004KT 10SM CLR 20/18 A2988 RMK AO2 LTG DSNT S T01970175
KSGS 191035Z AUTO 15004KT 10SM CLR 20/17 A2989 RMK AO2 LTG DSNT S T01970172
KSGS 191015Z AUTO 14004KT 10SM CLR 20/17 A2989 RMK AO2 T01980170
KSGS 190955Z AUTO 14003KT 10SM CLR 20/17 A2990 RMK AO2 T01970167
KSGS 190935Z AUTO 14003KT 10SM CLR 20/16 A2990 RMK AO2 T01970164
KSGS 190915Z AUTO 00000KT 10SM CLR 20/16 A2991 RMK AO2 T01970161
KSGS 190855Z AUTO 00000KT 10SM CLR 20/16 A2991 RMK AO2 T02000159
KSGS 190835Z AUTO 16003KT 10SM CLR 20/16 A2992 RMK AO2 T02010156
KSGS 190815Z AUTO 15004KT 10SM CLR 20/16 A2992 RMK AO2 T02030155
KSGS 190755Z AUTO 17003KT 10SM CLR 20/15 A2993 RMK AO2 T02030152
KSGS 190735Z AUTO 15004KT 10SM CLR 20/15 A2992 RMK AO2 T02040152
KSGS 190715Z AUTO 15003KT 10SM CLR 20/15 A2993 RMK AO2 T02030153
KSGS 190655Z AUTO 16003KT 10SM CLR 21/16 A2994 RMK AO2 T02050155
KSGS 190635Z AUTO 13003KT 10SM CLR 21/16 A2994 RMK AO2 T02070157
KSGS 190615Z AUTO 15003KT 10SM CLR 21/16 A2995 RMK AO2 T02070162
KSGS 190555Z AUTO 14003KT 10SM CLR 21/16 A2995 RMK AO2 T02100163 10257 20210 402690157
KSGS 190535Z AUTO 00000KT 10SM CLR 21/17 A2996 RMK AO2 T02110165
KSGS 190515Z AUTO 00000KT 10SM CLR 21/17 A2996 RMK AO2 T02100166
KSGS 190455Z AUTO 00000KT 10SM CLR 21/16 A2996 RMK AO2 T02100162
KSGS 190435Z AUTO 00000KT 10SM CLR 21/16 A2996 RMK AO2 T02130156
KSGS 190415Z AUTO 00000KT 10SM CLR 22/16 A2996 RMK AO2 T02160155
KSGS 190355Z AUTO 00000KT 10SM CLR 22/16 A2997 RMK AO2 T02170155
KSGS 190335Z AUTO 00000KT 10SM CLR 22/15 A2997 RMK AO2 T02200154
KSGS 190315Z AUTO 00000KT 10SM CLR 22/15 A2997 RMK AO2 T02220153
KSGS 190255Z AUTO 00000KT 10SM CLR 23/15 A2998 RMK AO2 T02260154
KSGS 190235Z AUTO 00000KT 10SM CLR 23/15 A2998 RMK AO2 T02300152
KSGS 190215Z AUTO 14003KT 10SM CLR 23/15 A2998 RMK AO2 T02330150
KSGS 190155Z AUTO 14004KT 10SM CLR 24/15 A2997 RMK AO2 T02370147
KSGS 190135Z AUTO 13003KT 10SM CLR 24/15 A2997 RMK AO2 T02400146
KSGS 190115Z AUTO 13003KT 10SM CLR 25/15 A2997 RMK AO2 T02450146
KSGS 190055Z AUTO 14003KT 10SM CLR 25/15 A2997 RMK AO2 T02510146
KSGS 190035Z AUTO 12005KT 10SM CLR 26/15 A2998 RMK AO2 T02550148
KSGS 190015Z AUTO 12005KT 10SM CLR 26/15 A2999 RMK AO2 T02550145
KSGS 182355Z AUTO 10005KT 10SM CLR 26/14 A2999 RMK AO2 T02570138 10269 20257
KSGS 182335Z AUTO 13005KT 10SM CLR 26/14 A2999 RMK AO2 T02610137
KSGS 182315Z AUTO 13005KT 10SM CLR 26/14 A3000 RMK AO2 T02640135
KSGS 182255Z AUTO 13006KT 10SM CLR 27/14 A3000 RMK AO2 T02660136
KSGS 182235Z AUTO 16005KT 10SM CLR 27/13 A3000 RMK AO2 T02660134
KSGS 182215Z AUTO 16003KT 10SM CLR 26/13 A3001 RMK AO2 T02630131
KSGS 182155Z AUTO 15005KT 10SM CLR 26/13 A3002 RMK AO2 T02640131
KSGS 182135Z AUTO 16005KT 10SM CLR 27/13 A3002 RMK AO2 T02690134
KSGS 182115Z AUTO 17004KT 10SM CLR 26/13 A3003 RMK AO2 T02630129
KSGS 182055Z AUTO 19003KT 10SM CLR 26/13 A3003 RMK AO2 T02610125
KSGS 182035Z AUTO 13005KT 10SM CLR 26/13 A3004 RMK AO2 T02640128
KSGS 182015Z AUTO 13004KT 10SM CLR 26/13 A3005 RMK AO2 T02630125
KSGS 181955Z AUTO 11004KT 10SM CLR 26/12 A3005 RMK AO2 T02640124
KSGS 181935Z AUTO 13003KT 10SM CLR 26/12 A3005 RMK AO2 T02630118
KSGS 181915Z AUTO 00000KT 10SM CLR 27/12 A3006 RMK AO2 T02680118
KSGS 181855Z AUTO 16006KT 10SM CLR 26/12 A3006 RMK AO2 T02590121
KSGS 181835Z AUTO 13004KT 10SM CLR 26/13 A3006 RMK AO2 T02640125
KSGS 181815Z AUTO 17005KT 10SM CLR 26/12 A3006 RMK AO2 T02600124
KSGS 181755Z AUTO 12004KT 10SM CLR 26/12 A3007 RMK AO2 T02580116 10261 20173
KSGS 181735Z AUTO 19004KT 10SM CLR 26/12 A3008 RMK AO2 T02570117
KSGS 181715Z AUTO 00000KT 10SM CLR 26/12 A3009 RMK AO2 T02600119
KSGS 181655Z AUTO 15004KT 10SM CLR 26/12 A3009 RMK AO2 T02550119
KSGS 181635Z AUTO 13003KT 10SM CLR 25/12 A3009 RMK AO2 T02530124
KSGS 181615Z AUTO 00000KT 10SM CLR 25/13 A3010 RMK AO2 T02500131
KSGS 181555Z AUTO 00000KT 10SM CLR 25/14 A3010 RMK AO2 T02450142
KSGS 181535Z AUTO 00000KT 10SM CLR 24/14 A3011 RMK AO2 T02380139
KSGS 181515Z AUTO 15004KT 10SM CLR 24/14 A3011 RMK AO2 T02350140